Time;durP1;ratioP1;P1;durP2;ratioP2;P2;SDS_P1;SDS_P2;PMS_P1;PMS_P2;Temp;Humidity;BMP_temperature;BMP_pressure;BME280_temperature;BME280_humidity;BME280_pressure;Samples;Min_cycle;Max_cycle;Signal;HPM_P1;HPM_P2
2021/01/28 00:02:11;;;;;;;0.00;0.00;;;14.90;69.90;;;;;;4212897;28;20056;-41
2021/01/28 00:04:32;;;;;;;0.00;0.00;;;14.80;69.90;;;;;;4213089;28;20056;-41
2021/01/28 00:06:53;;;;;;;0.00;0.00;;;14.80;70.10;;;;;;4212923;28;20058;-41
2021/01/28 00:09:14;;;;;;;0.15;0.15;;;14.90;70.10;;;;;;4212855;28;20135;-41
2021/01/28 00:11:37;;;;;;;0.00;0.00;;;15.20;69.60;;;;;;4212440;28;20055;-41
2021/01/28 00:13:58;;;;;;;0.00;0.00;;;15.30;68.70;;;;;;4213056;28;20048;-41
2021/01/28 00:16:19;;;;;;;0.08;0.08;;;15.50;67.90;;;;;;4212690;28;20048;-40
2021/01/28 00:18:41;;;;;;;0.35;0.35;;;15.60;67.50;;;;;;4213034;28;20056;-41
2021/01/28 00:21:01;;;;;;;0.10;0.10;;;15.70;67.10;;;;;;4212260;28;20453;-41
2021/01/28 00:23:22;;;;;;;0.00;0.00;;;15.70;66.90;;;;;;4212844;28;20052;-41
2021/01/28 00:25:43;;;;;;;0.30;0.30;;;15.70;66.90;;;;;;4212637;28;20059;-41
2021/01/28 00:28:06;;;;;;;;;;;15.70;67.00;;;;;;4212878;28;20202;-41
2021/01/28 00:30:29;;;;;;;0.00;0.00;;;15.70;67.00;;;;;;4212365;28;20451;-41
2021/01/28 00:32:50;;;;;;;0.00;0.00;;;15.80;66.90;;;;;;4212257;28;20060;-41
2021/01/28 00:35:16;;;;;;;0.13;0.13;;;15.80;66.70;;;;;;4212825;28;20481;-41
2021/01/28 00:37:37;;;;;;;0.00;0.00;;;15.90;66.20;;;;;;4211298;28;20048;-41
2021/01/28 00:39:58;;;;;;;1.98;0.47;;;16.00;65.70;;;;;;4212528;28;20148;-41
2021/01/28 00:42:19;;;;;;;0.00;0.00;;;16.10;65.60;;;;;;4212820;28;20513;-41
2021/01/28 00:44:41;;;;;;;0.00;0.00;;;16.10;65.40;;;;;;4212420;28;20493;-41
2021/01/28 00:47:02;;;;;;;0.05;0.05;;;16.10;65.50;;;;;;4212218;28;20498;-40
2021/01/28 00:49:23;;;;;;;0.00;0.00;;;16.10;65.40;;;;;;4212496;28;20557;-41
2021/01/28 00:51:45;;;;;;;0.00;0.00;;;16.20;65.30;;;;;;4212263;28;20080;-40
2021/01/28 00:54:06;;;;;;;0.00;0.00;;;16.20;65.00;;;;;;4212436;28;20078;-42
2021/01/28 00:56:27;;;;;;;0.00;0.00;;;16.30;64.80;;;;;;4212169;28;20105;-41
2021/01/28 00:58:50;;;;;;;0.00;0.00;;;16.30;64.80;;;;;;4210956;28;20117;-42
2021/01/28 01:01:15;;;;;;;0.00;0.00;;;16.20;64.90;;;;;;4211097;28;20052;-42
2021/01/28 01:03:36;;;;;;;0.00;0.00;;;16.10;65.10;;;;;;4212372;28;20052;-41
2021/01/28 01:05:58;;;;;;;0.10;0.10;;;16.10;65.30;;;;;;4211796;28;20048;-41
2021/01/28 01:08:22;;;;;;;0.00;0.00;;;16.30;65.10;;;;;;4212159;28;20130;-40
2021/01/28 01:10:45;;;;;;;0.00;0.00;;;16.40;64.30;;;;;;4212588;28;20133;-41
2021/01/28 01:13:09;;;;;;;0.22;0.22;;;16.50;63.90;;;;;;4212255;28;20421;-41
2021/01/28 01:15:31;;;;;;;0.00;0.00;;;16.60;63.70;;;;;;4211030;28;20522;-40
2021/01/28 01:17:53;;;;;;;;;;;16.60;63.80;;;;;;4212492;28;20494;-40
2021/01/28 01:20:22;;;;;;;0.10;0.10;;;16.50;63.90;;;;;;4211261;28;19920;-40
2021/01/28 01:22:45;;;;;;;0.00;0.00;;;16.40;64.10;;;;;;4212104;28;20102;-41
2021/01/28 01:25:07;;;;;;;0.00;0.00;;;16.50;64.20;;;;;;4210992;28;20621;-41
2021/01/28 01:27:27;;;;;;;0.00;0.00;;;16.50;63.90;;;;;;4211784;28;20135;-41
2021/01/28 01:29:52;;;;;;;0.10;0.10;;;16.50;63.90;;;;;;4211298;28;20059;-40
2021/01/28 01:32:23;;;;;;;0.00;0.00;;;16.50;64.00;;;;;;4211005;28;20055;-41
2021/01/28 01:35:05;;;;;;;0.00;0.00;;;16.40;64.20;;;;;;4211834;28;20076;-40
2021/01/28 01:37:27;;;;;;;0.00;0.00;;;16.40;64.50;;;;;;4210755;28;20068;-41
2021/01/28 01:39:51;;;;;;;0.38;0.38;;;16.30;64.80;;;;;;4210848;28;20052;-44
2021/01/28 01:42:12;;;;;;;0.00;0.00;;;16.20;65.00;;;;;;4214332;28;20181;-41
2021/01/28 01:44:36;;;;;;;0.30;0.30;;;16.10;65.40;;;;;;4214043;28;20056;-41
2021/01/28 01:47:35;;;;;;;0.40;0.40;;;16.10;65.70;;;;;;4213871;28;20632;-41
2021/01/28 01:49:56;;;;;;;0.08;0.08;;;15.90;66.10;;;;;;4213756;28;20047;-42
2021/01/28 01:52:30;;;;;;;0.00;0.00;;;15.90;67.30;;;;;;4214075;28;20518;-41
2021/01/28 01:54:53;;;;;;;0.00;0.00;;;15.80;66.70;;;;;;4214089;28;20437;-41
2021/01/28 01:57:19;;;;;;;0.52;0.52;;;15.70;67.00;;;;;;4214686;28;20048;-41
2021/01/28 01:59:53;;;;;;;0.00;0.00;;;15.70;67.40;;;;;;4213967;28;20048;-40
2021/01/28 02:02:19;;;;;;;0.00;0.00;;;15.60;67.40;;;;;;4214787;28;20460;-41
2021/01/28 02:05:03;;;;;;;0.00;0.00;;;15.60;67.40;;;;;;4214903;28;20055;-41
2021/01/28 02:07:48;;;;;;;0.00;0.00;;;15.60;67.50;;;;;;4198246;28;20048;-41
2021/01/28 02:10:28;;;;;;;0.38;0.38;;;15.60;67.60;;;;;;4198073;28;20048;-41
2021/01/28 02:13:21;;;;;;;0.00;0.00;;;15.60;67.90;;;;;;4188540;28;20860;-42
2021/01/28 02:15:54;;;;;;;0.00;0.00;;;15.50;68.00;;;;;;4206357;28;20048;-40
2021/01/28 02:18:16;;;;;;;0.00;0.00;;;15.40;68.10;;;;;;4213811;28;20056;-41
2021/01/28 02:21:26;;;;;;;0.80;0.52;;;15.40;68.30;;;;;;4214366;28;20060;-41
2021/01/28 02:24:22;;;;;;;0.00;0.00;;;15.40;68.60;;;;;;4213421;28;20550;-41
2021/01/28 02:26:46;;;;;;;0.00;0.00;;;15.40;68.20;;;;;;4212941;28;20162;-41
2021/01/28 02:29:26;;;;;;;0.00;0.00;;;15.50;68.10;;;;;;4214607;28;20062;-41
2021/01/28 02:31:50;;;;;;;0.10;0.10;;;15.50;67.90;;;;;;4214790;28;20079;-41
2021/01/28 02:34:13;;;;;;;0.05;0.05;;;15.50;67.80;;;;;;4214282;28;20056;-41
2021/01/28 02:36:54;;;;;;;0.00;0.00;;;15.50;67.70;;;;;;4196769;28;20512;-42
2021/01/28 02:39:44;;;;;;;0.00;0.00;;;15.50;67.70;;;;;;4195595;28;20056;-41
2021/01/28 02:42:38;;;;;;;0.00;0.00;;;15.50;67.80;;;;;;4197780;28;20391;-41
2021/01/28 02:45:07;;;;;;;0.00;0.00;;;15.50;67.80;;;;;;4198915;28;20121;-41
2021/01/28 02:48:10;;;;;;;0.00;0.00;;;15.50;67.80;;;;;;4206299;28;20525;-41
2021/01/28 02:50:42;;;;;;;0.75;0.68;;;15.50;67.70;;;;;;4212920;28;20572;-42
2021/01/28 02:53:06;;;;;;;0.00;0.00;;;15.50;67.80;;;;;;4214211;28;20132;-47
2021/01/28 02:55:32;;;;;;;0.00;0.00;;;15.50;68.00;;;;;;4212857;28;20134;-41
2021/01/28 02:57:54;;;;;;;0.00;0.00;;;15.50;67.80;;;;;;4212923;28;20063;-41
2021/01/28 03:00:18;;;;;;;0.00;0.00;;;15.50;67.60;;;;;;4213064;28;20563;-42
2021/01/28 03:02:39;;;;;;;0.00;0.00;;;15.60;67.50;;;;;;4212697;28;20101;-41
2021/01/28 03:05:00;;;;;;;;;;;15.60;67.60;;;;;;4213847;28;20798;-41
2021/01/28 03:07:33;;;;;;;0.00;0.00;;;15.70;67.30;;;;;;4213920;28;20589;-42
2021/01/28 03:09:55;;;;;;;;;;;15.70;66.80;;;;;;4213207;28;20060;-41
2021/01/28 03:12:19;;;;;;;0.00;0.00;;;15.80;66.60;;;;;;4212809;28;19981;-41
2021/01/28 03:14:49;;;;;;;0.00;0.00;;;15.80;66.40;;;;;;4212828;28;20122;-41
2021/01/28 03:17:10;;;;;;;0.05;0.05;;;15.80;66.40;;;;;;4196079;28;20888;-41
2021/01/28 03:19:38;;;;;;;0.00;0.00;;;15.80;66.40;;;;;;4206371;28;20491;-42
2021/01/28 03:22:07;;;;;;;0.05;0.05;;;15.90;66.30;;;;;;4212679;28;20055;-41
2021/01/28 03:24:32;;;;;;;0.95;0.95;;;16.00;65.80;;;;;;4212608;28;20060;-41
2021/01/28 03:26:56;;;;;;;0.00;0.00;;;16.10;65.60;;;;;;4212118;28;20567;-41
2021/01/28 03:29:17;;;;;;;0.00;0.00;;;16.20;65.20;;;;;;4212443;28;20052;-41
2021/01/28 03:31:42;;;;;;;0.00;0.00;;;16.30;64.60;;;;;;4212427;28;20056;-41
2021/01/28 03:34:09;;;;;;;0.00;0.00;;;16.40;64.30;;;;;;4212168;28;20410;-42
2021/01/28 03:36:30;;;;;;;0.00;0.00;;;16.40;64.00;;;;;;4212170;28;20454;-41
2021/01/28 03:38:54;;;;;;;0.20;0.20;;;16.40;63.90;;;;;;4212361;28;20121;-41
2021/01/28 03:41:15;;;;;;;0.00;0.00;;;16.40;63.90;;;;;;4213375;28;20583;-42
2021/01/28 03:43:36;;;;;;;0.00;0.00;;;16.40;64.90;;;;;;4212253;28;20058;-41
2021/01/28 03:45:58;;;;;;;0.10;0.10;;;16.40;64.10;;;;;;4213247;28;20044;-40
2021/01/28 03:48:22;;;;;;;0.00;0.00;;;16.40;64.20;;;;;;4211732;28;20056;-40
2021/01/28 03:50:48;;;;;;;0.03;0.03;;;16.30;64.10;;;;;;4211987;28;20063;-41
2021/01/28 03:53:24;;;;;;;1.45;1.02;;;16.30;64.40;;;;;;4212156;28;20127;-40
2021/01/28 03:55:54;;;;;;;0.00;0.00;;;16.30;64.20;;;;;;4211864;28;20048;-41
2021/01/28 03:58:15;;;;;;;0.43;0.43;;;16.40;64.00;;;;;;4212878;28;20075;-41
2021/01/28 04:00:40;;;;;;;0.00;0.00;;;16.40;63.90;;;;;;4212193;28;20445;-41
2021/01/28 04:03:07;;;;;;;0.00;0.00;;;16.40;63.90;;;;;;4210916;28;20052;-41
2021/01/28 04:05:48;;;;;;;0.10;0.10;;;16.30;64.00;;;;;;4196421;28;20053;-41
2021/01/28 04:08:45;;;;;;;0.22;0.22;;;16.30;64.30;;;;;;4209532;28;20189;-41
2021/01/28 04:11:25;;;;;;;0.32;0.32;;;16.30;64.10;;;;;;4196297;28;20183;-41
2021/01/28 04:13:51;;;;;;;0.00;0.00;;;16.40;63.90;;;;;;4204092;28;20109;-41
2021/01/28 04:16:17;;;;;;;0.00;0.00;;;16.40;63.70;;;;;;4212041;28;20077;-40
2021/01/28 04:18:39;;;;;;;0.00;0.00;;;16.40;63.70;;;;;;4211343;28;20138;-41
2021/01/28 04:21:21;;;;;;;0.10;0.10;;;16.30;63.90;;;;;;4213034;28;20078;-40
2021/01/28 04:23:44;;;;;;;0.00;0.00;;;16.30;64.10;;;;;;4211178;28;20093;-41
2021/01/28 04:26:17;;;;;;;0.00;0.00;;;16.30;64.00;;;;;;4211790;28;20063;-41
2021/01/28 04:28:45;;;;;;;0.45;0.45;;;16.40;63.90;;;;;;4211477;28;20056;-41
2021/01/28 04:31:25;;;;;;;0.10;0.10;;;16.40;63.90;;;;;;4212499;28;20056;-40
2021/01/28 04:33:48;;;;;;;0.03;0.03;;;16.50;63.30;;;;;;4211080;28;20494;-41
2021/01/28 04:36:16;;;;;;;0.00;0.00;;;16.60;63.00;;;;;;4211846;28;20071;-41
2021/01/28 04:38:54;;;;;;;0.00;0.00;;;16.60;62.90;;;;;;4211496;28;20058;-41
2021/01/28 04:41:20;;;;;;;0.00;0.00;;;16.60;63.10;;;;;;4211243;28;20051;-41
2021/01/28 04:43:42;;;;;;;0.00;0.00;;;16.50;64.20;;;;;;4212408;28;20048;-41
2021/01/28 04:46:24;;;;;;;0.00;0.00;;;16.40;63.60;;;;;;4194628;28;20048;-40
2021/01/28 04:48:57;;;;;;;1.20;1.20;;;16.30;63.90;;;;;;4207989;28;20148;-41
2021/01/28 04:51:31;;;;;;;0.00;0.00;;;16.20;64.20;;;;;;4211346;28;20062;-40
2021/01/28 04:53:58;;;;;;;0.00;0.00;;;16.20;64.20;;;;;;4211051;28;20052;-40
2021/01/28 04:56:32;;;;;;;0.55;0.55;;;16.30;64.20;;;;;;4210857;28;20075;-41
2021/01/28 04:59:19;;;;;;;0.45;0.45;;;16.30;64.20;;;;;;4212011;28;20051;-41
2021/01/28 05:01:41;;;;;;;0.00;0.00;;;16.30;64.20;;;;;;4211266;28;20383;-41
2021/01/28 05:04:34;;;;;;;0.00;0.00;;;16.20;64.10;;;;;;4205308;28;20498;-41
2021/01/28 05:07:21;;;;;;;0.00;0.00;;;16.20;64.30;;;;;;4212374;28;20219;-40
2021/01/28 05:10:12;;;;;;;0.00;0.00;;;16.10;64.50;;;;;;4211939;28;20098;-40
2021/01/28 05:12:55;;;;;;;0.00;0.00;;;16.10;64.60;;;;;;4212445;28;20129;-41
2021/01/28 05:15:35;;;;;;;0.00;0.00;;;16.10;64.90;;;;;;4213939;28;20055;-41
2021/01/28 05:18:32;;;;;;;0.00;0.00;;;16.00;65.00;;;;;;4215236;28;20450;-41
2021/01/28 05:21:22;;;;;;;0.00;0.00;;;15.90;65.40;;;;;;4215368;28;20074;-42
2021/01/28 05:24:06;;;;;;;0.00;0.00;;;15.80;65.70;;;;;;4215666;28;20047;-40
2021/01/28 05:26:35;;;;;;;0.00;0.00;;;15.80;66.00;;;;;;4215658;28;20056;-41
2021/01/28 05:29:26;;;;;;;0.47;0.47;;;15.80;65.90;;;;;;4214491;28;20060;-41
2021/01/28 05:32:00;;;;;;;0.00;0.00;;;15.80;65.70;;;;;;4201744;28;20071;-41
2021/01/28 05:34:27;;;;;;;0.00;0.00;;;15.80;65.70;;;;;;4215302;28;20444;-41
2021/01/28 05:37:11;;;;;;;0.00;0.00;;;15.80;65.80;;;;;;4214273;28;20048;-40
2021/01/28 05:40:13;;;;;;;0.10;0.10;;;15.70;66.00;;;;;;4211577;28;20127;-41
2021/01/28 05:42:42;;;;;;;0.00;0.00;;;15.80;65.90;;;;;;4197396;28;20107;-41
2021/01/28 05:45:23;;;;;;;0.00;0.00;;;15.80;65.60;;;;;;4197297;28;20063;-41
2021/01/28 05:48:29;;;;;;;0.00;0.00;;;15.80;65.50;;;;;;4180737;28;20057;-41
2021/01/28 05:51:14;;;;;;;0.00;0.00;;;15.80;65.50;;;;;;4197103;28;20128;-41
2021/01/28 05:53:36;;;;;;;0.00;0.00;;;15.80;65.70;;;;;;4211730;28;20148;-41
2021/01/28 05:55:58;;;;;;;0.00;0.00;;;15.70;66.00;;;;;;4198252;28;20109;-40
2021/01/28 05:58:31;;;;;;;0.00;0.00;;;15.70;66.10;;;;;;4197180;28;20462;-41
2021/01/28 06:00:58;;;;;;;0.00;0.00;;;15.70;65.80;;;;;;4203922;28;20044;-42
2021/01/28 06:03:55;;;;;;;0.10;0.10;;;15.80;65.70;;;;;;4213469;28;20063;-40
2021/01/28 06:07:13;;;;;;;0.00;0.00;;;15.80;65.70;;;;;;4215077;28;20051;-41
2021/01/28 06:10:27;;;;;;;0.00;0.00;;;15.70;65.80;;;;;;4213953;28;20052;-41
2021/01/28 06:13:53;;;;;;;0.00;0.00;;;15.60;66.00;;;;;;4179336;28;20049;-40
2021/01/28 06:17:04;;;;;;;0.10;0.10;;;15.50;66.30;;;;;;4174200;28;20120;-40
2021/01/28 06:20:07;;;;;;;0.00;0.00;;;15.50;66.70;;;;;;4197937;28;20131;-41
2021/01/28 06:22:41;;;;;;;0.00;0.00;;;15.40;67.10;;;;;;4196835;28;20516;-40
2021/01/28 06:25:45;;;;;;;0.00;0.00;;;15.50;66.60;;;;;;4198043;28;20120;-41
2021/01/28 06:28:32;;;;;;;0.00;0.00;;;15.70;65.90;;;;;;4196719;28;20056;-40
2021/01/28 06:31:06;;;;;;;0.00;0.00;;;15.90;65.20;;;;;;4202569;28;20820;-41
2021/01/28 06:34:07;;;;;;;0.00;0.00;;;16.10;64.30;;;;;;4214111;28;20425;-41
2021/01/28 06:36:59;;;;;;;0.00;0.00;;;16.10;64.00;;;;;;4214471;28;20496;-41
2021/01/28 06:39:39;;;;;;;0.00;0.00;;;16.10;64.00;;;;;;4213672;28;20132;-41
2021/01/28 06:42:48;;;;;;;1.10;1.10;;;16.10;64.20;;;;;;4197548;28;20056;-41
2021/01/28 06:45:49;;;;;;;0.00;0.00;;;16.00;64.40;;;;;;4196535;28;20074;-41
2021/01/28 06:48:22;;;;;;;0.00;0.00;;;16.00;64.90;;;;;;4196321;28;20388;-41
2021/01/28 06:51:06;;;;;;;0.00;0.00;;;15.90;65.30;;;;;;4205146;28;20417;-41
2021/01/28 06:53:44;;;;;;;0.00;0.00;;;15.90;65.50;;;;;;4213122;28;20096;-41
2021/01/28 06:56:28;;;;;;;0.00;0.00;;;15.80;65.60;;;;;;4214356;28;20067;-41
2021/01/28 06:59:16;;;;;;;0.00;0.00;;;15.80;65.90;;;;;;4212962;28;20056;-41
2021/01/28 07:01:54;;;;;;;0.00;0.00;;;15.80;65.60;;;;;;4206686;28;20522;-41
2021/01/28 07:04:41;;;;;;;0.00;0.00;;;15.90;66.20;;;;;;4214142;28;20056;-42
2021/01/28 07:07:12;;;;;;;0.17;0.17;;;15.90;65.20;;;;;;4212893;28;20490;-42
2021/01/28 07:10:01;;;;;;;0.00;0.00;;;15.90;65.40;;;;;;4213767;28;20052;-41
2021/01/28 07:12:36;;;;;;;0.00;0.00;;;15.90;65.90;;;;;;4212407;28;20082;-44
2021/01/28 07:15:29;;;;;;;0.00;0.00;;;16.10;66.20;;;;;;4203891;28;20063;-41
2021/01/28 07:18:12;;;;;;;0.00;0.00;;;16.40;65.00;;;;;;4196925;28;20510;-46
2021/01/28 07:20:37;;;;;;;0.00;0.00;;;16.50;64.10;;;;;;4206173;28;20083;-41
2021/01/28 07:23:32;;;;;;;0.00;0.00;;;16.50;63.70;;;;;;4212395;28;20055;-42
2021/01/28 07:26:06;;;;;;;0.00;0.00;;;16.50;63.70;;;;;;4213044;28;20052;-42
2021/01/28 07:28:29;;;;;;;0.05;0.05;;;16.40;63.70;;;;;;4213878;28;20771;-42
2021/01/28 07:30:52;;;;;;;0.00;0.00;;;16.40;63.90;;;;;;4200235;28;20720;-41
2021/01/28 07:33:34;;;;;;;0.30;0.30;;;16.30;64.10;;;;;;4213704;28;20063;-44
2021/01/28 07:36:49;;;;;;;0.00;0.00;;;16.30;64.30;;;;;;4213681;28;20051;-43
2021/01/28 07:39:42;;;;;;;0.00;0.00;;;16.20;64.30;;;;;;4177747;28;20075;-42
2021/01/28 07:42:28;;;;;;;0.00;0.00;;;16.10;64.50;;;;;;4161060;28;20049;-41
2021/01/28 07:45:29;;;;;;;0.00;0.00;;;16.00;64.70;;;;;;4213368;28;20067;-42
2021/01/28 07:48:00;;;;;;;0.15;0.15;;;16.00;64.80;;;;;;4211152;28;20060;-42
2021/01/28 07:50:44;;;;;;;0.00;0.00;;;16.00;65.00;;;;;;4212930;28;20059;-50
2021/01/28 07:53:38;;;;;;;0.00;0.00;;;15.90;65.30;;;;;;4209394;28;20055;-43
2021/01/28 07:55:59;;;;;;;0.00;0.00;;;15.90;65.50;;;;;;4213093;28;20047;-42
2021/01/28 07:58:26;;;;;;;0.00;0.00;;;15.80;65.50;;;;;;4212082;28;20109;-39
2021/01/28 08:00:49;;;;;;;0.00;0.00;;;15.80;65.60;;;;;;4213346;28;20044;-40
2021/01/28 08:03:20;;;;;;;0.00;0.00;;;15.80;65.60;;;;;;4212749;28;20050;-40
2021/01/28 08:05:49;;;;;;;0.00;0.00;;;16.00;65.00;;;;;;4212496;28;20414;-41
2021/01/28 08:08:14;;;;;;;0.00;0.00;;;16.20;64.20;;;;;;4210775;28;20055;-42
2021/01/28 08:10:44;;;;;;;0.80;0.80;;;16.30;63.60;;;;;;4211600;28;20457;-41
2021/01/28 08:13:09;;;;;;;0.00;0.00;;;16.30;63.30;;;;;;4212746;28;20058;-41
2021/01/28 08:15:36;;;;;;;0.00;0.00;;;16.30;63.40;;;;;;4212165;28;20472;-42
2021/01/28 08:18:02;;;;;;;0.00;0.00;;;16.20;63.60;;;;;;4213025;28;20048;-41
2021/01/28 08:20:27;;;;;;;0.22;0.22;;;16.10;63.80;;;;;;4212726;28;20079;-42
2021/01/28 08:22:58;;;;;;;0.00;0.00;;;16.00;63.90;;;;;;4212654;28;20557;-43
2021/01/28 08:25:20;;;;;;;0.00;0.00;;;16.00;64.20;;;;;;4212630;28;20767;-42
2021/01/28 08:27:42;;;;;;;0.00;0.00;;;15.80;64.10;;;;;;4212654;28;20048;-42
2021/01/28 08:30:10;;;;;;;0.00;0.00;;;15.80;65.20;;;;;;4212201;28;20055;-40
2021/01/28 08:32:33;;;;;;;0.00;0.00;;;15.80;64.90;;;;;;4211715;28;20071;-40
2021/01/28 08:35:17;;;;;;;0.20;0.20;;;15.70;64.90;;;;;;4212219;28;20150;-41
2021/01/28 08:37:38;;;;;;;0.05;0.05;;;15.70;65.00;;;;;;4212804;28;20504;-41
2021/01/28 08:39:59;;;;;;;0.10;0.10;;;15.70;66.20;;;;;;4212445;28;20251;-39
2021/01/28 08:42:22;;;;;;;0.00;0.00;;;15.70;66.70;;;;;;4212277;28;20060;-40
2021/01/28 08:44:46;;;;;;;0.00;0.00;;;15.60;67.00;;;;;;4212249;28;20056;-40
2021/01/28 08:47:10;;;;;;;0.10;0.10;;;15.60;67.20;;;;;;4195590;28;20056;-40
2021/01/28 08:49:32;;;;;;;3.10;1.98;;;15.50;67.10;;;;;;4195460;28;20080;-40
2021/01/28 08:52:01;;;;;;;0.35;0.35;;;15.50;66.80;;;;;;4195642;28;20143;-42
2021/01/28 08:54:44;;;;;;;0.00;0.00;;;15.40;66.90;;;;;;4206365;28;20604;-40
2021/01/28 08:57:10;;;;;;;0.47;0.47;;;15.50;67.10;;;;;;4212488;28;20075;-41
2021/01/28 08:59:56;;;;;;;0.00;0.00;;;15.60;66.30;;;;;;4212034;28;20063;-40
2021/01/28 09:02:22;;;;;;;0.00;0.00;;;15.70;65.60;;;;;;4211956;28;20057;-41
2021/01/28 09:04:50;;;;;;;0.00;0.00;;;15.70;65.60;;;;;;4212563;28;20076;-40
2021/01/28 09:07:48;;;;;;;0.00;0.00;;;15.70;65.40;;;;;;4211055;28;20070;-40
2021/01/28 09:10:30;;;;;;;0.00;0.00;;;15.70;65.50;;;;;;4211868;28;20473;-40
2021/01/28 09:12:51;;;;;;;0.10;0.10;;;15.60;65.50;;;;;;4211923;28;20080;-40
2021/01/28 09:15:19;;;;;;;0.00;0.00;;;15.60;65.20;;;;;;4211949;28;20723;-40
2021/01/28 09:18:05;;;;;;;0.17;0.17;;;15.60;65.40;;;;;;4210791;28;20055;-39
2021/01/28 09:20:31;;;;;;;1.20;1.02;;;15.50;65.30;;;;;;4204564;28;20052;-40
2021/01/28 09:23:06;;;;;;;0.30;0.30;;;15.50;65.60;;;;;;4200205;28;20048;-40
2021/01/28 09:25:27;;;;;;;0.10;0.10;;;15.50;65.30;;;;;;4204557;28;20082;-41
2021/01/28 09:28:00;;;;;;;0.88;0.28;;;15.50;65.00;;;;;;4211496;28;20068;-40
2021/01/28 09:30:29;;;;;;;0.20;0.20;;;15.50;65.00;;;;;;4211674;28;20048;-40
2021/01/28 09:32:51;;;;;;;0.30;0.30;;;15.60;65.00;;;;;;4210537;28;20056;-41
2021/01/28 09:35:18;;;;;;;0.00;0.00;;;15.70;64.40;;;;;;4211519;28;20422;-40
2021/01/28 09:37:41;;;;;;;0.45;0.45;;;15.80;63.80;;;;;;4211376;28;20044;-40
2021/01/28 09:40:19;;;;;;;0.03;0.03;;;15.80;63.60;;;;;;4211423;28;20510;-40
2021/01/28 09:42:42;;;;;;;0.68;0.68;;;15.80;64.40;;;;;;4193769;28;20143;-40
2021/01/28 09:45:09;;;;;;;0.00;0.00;;;15.80;63.70;;;;;;4196657;28;20060;-41
2021/01/28 09:47:32;;;;;;;0.30;0.30;;;15.70;63.90;;;;;;4211561;28;20052;-40
2021/01/28 09:49:56;;;;;;;0.20;0.20;;;15.60;63.80;;;;;;4211427;28;20138;-40
2021/01/28 09:52:22;;;;;;;0.03;0.03;;;15.50;64.60;;;;;;4211626;28;20044;-40
2021/01/28 09:54:42;;;;;;;0.17;0.17;;;15.50;64.70;;;;;;4211679;28;20060;-38
2021/01/28 09:57:04;;;;;;;0.20;0.20;;;15.50;65.00;;;;;;4211585;28;20051;-40
2021/01/28 09:59:25;;;;;;;0.45;0.45;;;15.60;64.70;;;;;;4211634;28;20060;-41
2021/01/28 10:01:47;;;;;;;0.20;0.20;;;15.60;64.90;;;;;;4212802;28;20129;-40
2021/01/28 10:04:11;;;;;;;0.13;0.13;;;15.60;64.80;;;;;;4213746;28;20489;-39
2021/01/28 10:06:33;;;;;;;0.10;0.10;;;15.60;64.70;;;;;;4214693;28;20617;-40
2021/01/28 10:08:54;;;;;;;0.20;0.20;;;15.60;64.40;;;;;;4214850;28;20061;-41
2021/01/28 10:11:15;;;;;;;0.00;0.00;;;15.50;64.50;;;;;;4214818;28;20051;-41
2021/01/28 10:13:36;;;;;;;;;;;15.50;64.60;;;;;;4214844;28;20079;-40
2021/01/28 10:15:57;;;;;;;0.00;0.00;;;15.60;64.40;;;;;;4206810;28;19928;-39
2021/01/28 10:18:18;;;;;;;4.30;3.25;;;15.60;63.90;;;;;;4213284;28;20052;-40
2021/01/28 10:20:43;;;;;;;0.00;0.00;;;15.70;63.80;;;;;;4214898;28;20048;-40
2021/01/28 10:23:06;;;;;;;3.00;1.45;;;15.60;63.70;;;;;;4214532;28;20426;-40
2021/01/28 10:25:27;;;;;;;0.57;0.57;;;15.70;63.80;;;;;;4214114;28;20131;-40
2021/01/28 10:27:50;;;;;;;1.23;1.13;;;15.70;63.70;;;;;;4214256;28;20056;-40
2021/01/28 10:30:15;;;;;;;2.65;1.33;;;15.70;63.40;;;;;;4212081;28;20056;-39
2021/01/28 10:32:36;;;;;;;2.03;1.88;;;15.70;63.40;;;;;;4213197;28;20072;-40
2021/01/28 10:34:59;;;;;;;0.35;0.35;;;15.70;63.70;;;;;;4213966;28;20052;-39
2021/01/28 10:37:20;;;;;;;0.22;0.22;;;15.90;63.30;;;;;;4214139;28;20127;-40
2021/01/28 10:39:42;;;;;;;1.00;0.90;;;16.10;62.50;;;;;;4214772;28;20100;-40
2021/01/28 10:42:03;;;;;;;0.38;0.38;;;16.20;61.90;;;;;;4214616;28;20516;-40
2021/01/28 10:44:25;;;;;;;0.47;0.47;;;16.20;62.00;;;;;;4212021;28;20055;-39
2021/01/28 10:46:46;;;;;;;;;;;16.30;61.90;;;;;;4214897;28;20642;-39
2021/01/28 10:49:08;;;;;;;5.05;1.42;;;16.20;62.30;;;;;;4213711;28;20405;-41
2021/01/28 10:51:29;;;;;;;0.08;0.08;;;16.10;62.50;;;;;;4197622;28;20075;-40
2021/01/28 10:53:50;;;;;;;0.82;0.82;;;16.10;62.90;;;;;;4200864;28;20410;-41
2021/01/28 10:56:12;;;;;;;1.35;1.27;;;16.10;62.60;;;;;;4212991;28;20534;-42
2021/01/28 10:58:32;;;;;;;0.22;0.22;;;16.00;62.30;;;;;;4213303;28;20067;-40
2021/01/28 11:00:54;;;;;;;0.35;0.35;;;15.90;62.40;;;;;;4213816;28;20077;-40
2021/01/28 11:03:16;;;;;;;0.17;0.17;;;15.80;62.50;;;;;;4214110;28;20056;-40
2021/01/28 11:05:37;;;;;;;0.43;0.43;;;15.80;62.90;;;;;;4213003;28;20066;-40
2021/01/28 11:07:59;;;;;;;5.95;1.35;;;15.80;62.80;;;;;;4214217;28;20565;-40
2021/01/28 11:10:24;;;;;;;10.75;1.58;;;15.70;62.70;;;;;;4213742;28;20044;-40
2021/01/28 11:12:46;;;;;;;0.00;0.00;;;15.60;62.70;;;;;;4196973;28;20055;-40
2021/01/28 11:15:11;;;;;;;0.68;0.65;;;15.60;63.20;;;;;;4200372;28;20052;-40
2021/01/28 11:17:32;;;;;;;0.82;0.82;;;15.50;62.70;;;;;;4213723;28;20181;-40
2021/01/28 11:19:56;;;;;;;0.55;0.55;;;15.40;62.90;;;;;;4214297;28;20059;-40
2021/01/28 11:22:16;;;;;;;0.00;0.00;;;15.40;63.10;;;;;;4213553;28;20060;-40
2021/01/28 11:24:37;;;;;;;15.45;0.63;;;15.30;63.40;;;;;;4214044;28;20461;-40
2021/01/28 11:27:00;;;;;;;1.55;1.15;;;15.20;63.60;;;;;;4213615;28;20084;-40
2021/01/28 11:29:24;;;;;;;7.97;1.75;;;15.20;63.90;;;;;;4213293;28;20044;-40
2021/01/28 11:31:45;;;;;;;0.00;0.00;;;15.10;64.90;;;;;;4200014;28;20052;-40
2021/01/28 11:34:09;;;;;;;0.65;0.65;;;15.00;64.30;;;;;;4211955;28;20048;-40
2021/01/28 11:36:30;;;;;;;0.25;0.25;;;15.00;64.30;;;;;;4213763;28;20076;-39
2021/01/28 11:38:51;;;;;;;0.10;0.10;;;15.10;64.20;;;;;;4213252;28;20052;-40
2021/01/28 11:41:12;;;;;;;0.00;0.00;;;15.20;64.00;;;;;;4213402;28;20080;-40
2021/01/28 11:43:34;;;;;;;0.55;0.55;;;15.30;64.00;;;;;;4212789;28;20055;-40
2021/01/28 11:45:55;;;;;;;0.00;0.00;;;15.30;63.90;;;;;;4213195;28;20152;-40
2021/01/28 11:48:16;;;;;;;0.65;0.65;;;15.20;64.00;;;;;;4213302;28;20468;-40
2021/01/28 11:50:38;;;;;;;0.20;0.20;;;15.20;64.10;;;;;;4212921;28;20062;-40
2021/01/28 11:52:59;;;;;;;9.13;4.18;;;15.10;64.10;;;;;;4212917;28;20050;-40
2021/01/28 11:55:21;;;;;;;;;;;15.10;64.30;;;;;;4213510;28;20055;-41
2021/01/28 11:57:43;;;;;;;0.10;0.10;;;15.00;64.40;;;;;;4213019;28;20353;-42
2021/01/28 12:00:07;;;;;;;0.10;0.10;;;15.00;64.50;;;;;;4213178;28;20048;-43
2021/01/28 12:02:31;;;;;;;0.08;0.08;;;15.00;64.60;;;;;;4212944;28;20577;-41
2021/01/28 12:04:53;;;;;;;0.90;0.90;;;15.00;64.90;;;;;;4212817;28;20052;-39
2021/01/28 12:07:15;;;;;;;;;;;14.90;65.20;;;;;;4203299;28;20460;-41
2021/01/28 12:09:36;;;;;;;0.45;0.45;;;14.90;65.30;;;;;;4213203;28;19920;-41
2021/01/28 12:11:58;;;;;;;0.00;0.00;;;14.80;65.30;;;;;;4212479;28;20058;-42
2021/01/28 12:14:19;;;;;;;;;;;14.80;65.60;;;;;;4204241;28;20134;-41
2021/01/28 12:16:42;;;;;;;1.20;1.20;;;14.70;65.80;;;;;;4212961;28;20468;-41
2021/01/28 12:19:07;;;;;;;0.35;0.35;;;14.80;66.00;;;;;;4212730;28;20160;-41
2021/01/28 12:21:29;;;;;;;0.22;0.22;;;14.90;65.40;;;;;;4212856;28;20052;-42
2021/01/28 12:23:50;;;;;;;0.08;0.08;;;15.00;65.20;;;;;;4212439;28;20048;-41
2021/01/28 12:26:12;;;;;;;0.00;0.00;;;15.00;65.10;;;;;;4212823;28;20052;-42
2021/01/28 12:28:33;;;;;;;;;;;15.00;65.60;;;;;;4213246;28;20121;-42
2021/01/28 12:30:54;;;;;;;3.40;2.28;;;15.00;65.60;;;;;;4212300;28;20016;-41
2021/01/28 12:33:16;;;;;;;3.13;2.85;;;15.00;65.90;;;;;;4212273;28;20147;-41
2021/01/28 12:35:38;;;;;;;12.10;1.15;;;15.00;66.00;;;;;;4212551;28;20052;-40
2021/01/28 12:38:03;;;;;;;3.30;2.35;;;14.90;66.20;;;;;;4195766;28;20073;-47
2021/01/28 12:40:26;;;;;;;0.00;0.00;;;14.90;66.30;;;;;;4196154;28;20549;-47
2021/01/28 12:42:47;;;;;;;0.10;0.10;;;14.80;66.70;;;;;;4196007;28;20052;-46
2021/01/28 12:45:09;;;;;;;0.15;0.15;;;14.70;67.50;;;;;;4210169;28;20571;-46
2021/01/28 12:47:30;;;;;;;0.00;0.00;;;14.60;67.40;;;;;;4212716;28;20490;-46
2021/01/28 12:49:53;;;;;;;3.05;1.88;;;14.50;67.60;;;;;;4212192;28;20440;-47
2021/01/28 12:52:14;;;;;;;1.35;1.13;;;14.50;68.10;;;;;;4212663;28;20105;-46
2021/01/28 12:54:35;;;;;;;0.00;0.00;;;14.40;68.00;;;;;;4212363;28;20154;-47
2021/01/28 12:56:56;;;;;;;0.10;0.10;;;14.40;68.40;;;;;;4212576;28;20058;-46
2021/01/28 12:59:18;;;;;;;4.28;3.70;;;14.40;68.20;;;;;;4212509;28;20056;-47
2021/01/28 13:01:39;;;;;;;0.05;0.05;;;14.50;68.40;;;;;;4212268;28;20478;-47
2021/01/28 13:04:00;;;;;;;0.10;0.10;;;14.60;68.10;;;;;;4212520;28;20101;-45
2021/01/28 13:06:22;;;;;;;0.00;0.00;;;14.80;67.60;;;;;;4212377;28;20502;-46